Chaykovskiy, Russia
Current Conditions -  °F | °C
As of 10:00 PM on Sunday 23 Nov 2014 (Local Time) from UWKE Reporting Station
Clear Clear  
Wind Chill: -9°   Ceiling: Unl
Heat Index:   Visibility: 6mi
Dew Point:   Wind: 16mph
Humidity: 67%   Direction: 40°NE
Pressure: 30.53"   Gusts: 22mph
Location:  56.78°N, 54.15°E
Report Text: UWKE 231700Z 04007G10MPS CAVOK M13/M18 Q1034 NOSIG RMKQFE758/1011 03090070
Loading
Personal Weather Stations






























Interactive Weather Map New forecast layout! Learn more

10-Day Weather Forecast

Advertisements
Track Severe Weather on mobile